Time;durP1;ratioP1;P1;durP2;ratioP2;P2;SDS_P1;SDS_P2;PMS_P1;PMS_P2;Temp;Humidity;BMP_temperature;BMP_pressure;BME280_temperature;BME280_humidity;BME280_pressure;Samples;Min_cycle;Max_cycle;Signal;HPM_P1;HPM_P2
2021/07/24 00:00:46;;;;;;;9.65;7.28;;;;;;;;;;5096439;28;20034;-59
2021/07/24 00:03:12;;;;;;;9.25;7.03;;;;;;;;;;5096464;28;20106;-59
2021/07/24 00:05:38;;;;;;;9.50;8.10;;;;;;;;;;5095904;28;20024;-59
2021/07/24 00:08:04;;;;;;;9.95;7.20;;;;;;;;;;5096504;28;20027;-59
2021/07/24 00:10:30;;;;;;;9.32;8.07;;;;;;;;;;5095525;28;20028;-59
2021/07/24 00:12:56;;;;;;;9.35;7.25;;;;;;;;;;5095697;28;20058;-59
2021/07/24 00:15:22;;;;;;;10.30;8.60;;;;;;;;;;5095609;28;20064;-59
2021/07/24 00:17:48;;;;;;;9.88;8.88;;;;;;;;;;5095569;28;20020;-59
2021/07/24 00:20:14;;;;;;;12.45;8.93;;;;;;;;;;5095562;28;20103;-59
2021/07/24 00:22:40;;;;;;;8.63;7.72;;;;;;;;;;5095589;28;20173;-59
2021/07/24 00:25:06;;;;;;;8.00;7.20;;;;;;;;;;5096038;28;20028;-59
2021/07/24 00:27:32;;;;;;;8.43;7.50;;;;;;;;;;5095349;28;20016;-59
2021/07/24 00:29:58;;;;;;;11.60;8.05;;;;;;;;;;5095345;28;20028;-59
2021/07/24 00:32:26;;;;;;;8.88;7.97;;;;;;;;;;5096122;28;20063;-59
2021/07/24 00:34:52;;;;;;;11.45;7.68;;;;;;;;;;5095273;28;20082;-59
2021/07/24 00:37:19;;;;;;;11.25;8.63;;;;;;;;;;5095096;28;20037;-59
2021/07/24 00:39:45;;;;;;;11.80;8.55;;;;;;;;;;5095569;28;20028;-59
2021/07/24 00:42:19;;;;;;;12.35;8.13;;;;;;;;;;5095673;28;20077;-59
2021/07/24 00:44:47;;;;;;;9.70;7.38;;;;;;;;;;5095061;28;20024;-59
2021/07/24 00:47:16;;;;;;;11.00;8.50;;;;;;;;;;5095090;28;20028;-59
2021/07/24 00:49:43;;;;;;;11.43;8.45;;;;;;;;;;5095694;28;20035;-59
2021/07/24 00:52:10;;;;;;;12.48;8.57;;;;;;;;;;5095314;28;20024;-58
2021/07/24 00:54:39;;;;;;;10.00;7.80;;;;;;;;;;5094826;28;20028;-59
2021/07/24 00:57:05;;;;;;;10.75;9.10;;;;;;;;;;5095572;28;20092;-59
2021/07/24 00:59:31;;;;;;;10.20;8.80;;;;;;;;;;5093500;28;20039;-59
2021/07/24 01:01:57;;;;;;;9.48;8.45;;;;;;;;;;5095303;28;20404;-58
2021/07/24 01:04:23;;;;;;;8.85;7.68;;;;;;;;;;5093691;28;20142;-59
2021/07/24 01:06:49;;;;;;;8.98;8.00;;;;;;;;;;5094605;28;20024;-58
2021/07/24 01:09:15;;;;;;;10.35;8.40;;;;;;;;;;5094540;28;20068;-58
2021/07/24 01:11:42;;;;;;;10.63;8.38;;;;;;;;;;5094937;28;20412;-59
2021/07/24 01:14:08;;;;;;;9.07;8.10;;;;;;;;;;5094548;28;20107;-58
2021/07/24 01:16:34;;;;;;;10.73;7.97;;;;;;;;;;5094466;28;20035;-59
2021/07/24 01:19:00;;;;;;;9.70;8.57;;;;;;;;;;5094511;28;20039;-59
2021/07/24 01:21:26;;;;;;;11.18;9.98;;;;;;;;;;5094996;28;20357;-59
2021/07/24 01:23:55;;;;;;;12.43;9.68;;;;;;;;;;5094361;28;20504;-59
2021/07/24 01:26:25;;;;;;;10.05;9.05;;;;;;;;;;5094585;28;20429;-58
2021/07/24 01:28:51;;;;;;;10.00;8.05;;;;;;;;;;5094288;28;20028;-58
2021/07/24 01:31:17;;;;;;;14.73;8.85;;;;;;;;;;5094543;28;20103;-58
2021/07/24 01:33:43;;;;;;;9.02;7.97;;;;;;;;;;5094119;28;20440;-59
2021/07/24 01:36:09;;;;;;;9.30;8.40;;;;;;;;;;5094078;28;20028;-58
2021/07/24 01:38:38;;;;;;;11.75;9.90;;;;;;;;;;5094396;28;20032;-58
2021/07/24 01:41:05;;;;;;;13.52;9.48;;;;;;;;;;5094444;28;20403;-58
2021/07/24 01:43:31;;;;;;;12.82;9.82;;;;;;;;;;5094360;28;20365;-58
2021/07/24 01:45:57;;;;;;;10.32;8.23;;;;;;;;;;5093958;28;20044;-58
2021/07/24 01:48:33;;;;;;;10.10;8.50;;;;;;;;;;5094309;28;20055;-58
2021/07/24 01:53:47;;;;;;;12.15;9.38;;;;;;;;;;5093976;28;20092;-58
2021/07/24 01:56:14;;;;;;;10.35;8.32;;;;;;;;;;5093763;28;20036;-58
2021/07/24 01:58:40;;;;;;;12.00;9.55;;;;;;;;;;5094128;28;20065;-58
2021/07/24 02:01:06;;;;;;;9.60;8.20;;;;;;;;;;5093855;28;20510;-58
2021/07/24 02:03:37;;;;;;;10.82;8.85;;;;;;;;;;5093808;28;20024;-59
2021/07/24 02:06:04;;;;;;;12.57;8.80;;;;;;;;;;5092333;28;20028;-59
2021/07/24 02:08:31;;;;;;;10.60;8.18;;;;;;;;;;5094132;28;20450;-58
2021/07/24 02:10:59;;;;;;;10.77;8.73;;;;;;;;;;5092986;28;20052;-59
2021/07/24 02:13:25;;;;;;;8.65;7.35;;;;;;;;;;5092518;28;20111;-58
2021/07/24 02:15:56;;;;;;;11.50;8.30;;;;;;;;;;5093166;28;20052;-58
2021/07/24 02:18:22;;;;;;;9.38;8.52;;;;;;;;;;5092467;28;20029;-58
2021/07/24 02:20:48;;;;;;;9.88;8.32;;;;;;;;;;5093527;28;20059;-59
2021/07/24 02:23:15;;;;;;;11.52;9.45;;;;;;;;;;5093993;28;20093;-59
2021/07/24 02:25:41;;;;;;;14.60;9.00;;;;;;;;;;5093439;28;20107;-58
2021/07/24 02:28:07;;;;;;;9.57;8.60;;;;;;;;;;5093282;28;20454;-58
2021/07/24 02:30:33;;;;;;;9.63;8.32;;;;;;;;;;5093702;28;20035;-58
2021/07/24 02:32:59;;;;;;;8.85;7.90;;;;;;;;;;5093773;28;20016;-58
2021/07/24 02:35:25;;;;;;;10.63;8.80;;;;;;;;;;5093578;28;20024;-58
2021/07/24 02:37:51;;;;;;;14.23;8.52;;;;;;;;;;5092576;28;20354;-58
2021/07/24 02:40:17;;;;;;;10.77;8.48;;;;;;;;;;5093362;28;20099;-59
2021/07/24 02:42:43;;;;;;;12.18;8.73;;;;;;;;;;5093905;28;20395;-59
2021/07/24 02:45:10;;;;;;;12.27;9.23;;;;;;;;;;5093253;28;20020;-58
2021/07/24 02:47:36;;;;;;;13.88;9.35;;;;;;;;;;5093266;28;20359;-59
2021/07/24 02:50:02;;;;;;;9.95;8.95;;;;;;;;;;5093458;28;20109;-59
2021/07/24 02:52:28;;;;;;;10.98;9.13;;;;;;;;;;5093459;28;20031;-59
2021/07/24 02:54:57;;;;;;;10.20;9.02;;;;;;;;;;5093243;28;20456;-58
2021/07/24 02:57:23;;;;;;;12.23;9.15;;;;;;;;;;5093157;28;20150;-58
2021/07/24 02:59:49;;;;;;;11.50;9.80;;;;;;;;;;5093151;28;20470;-58
2021/07/24 03:02:15;;;;;;;12.52;8.95;;;;;;;;;;5093425;28;20036;-59
2021/07/24 03:04:41;;;;;;;15.13;10.15;;;;;;;;;;5093218;28;20028;-58
2021/07/24 03:07:07;;;;;;;10.23;9.10;;;;;;;;;;5092351;28;20335;-58
2021/07/24 03:09:33;;;;;;;10.02;8.88;;;;;;;;;;5092921;28;20081;-58
2021/07/24 03:11:59;;;;;;;11.55;8.88;;;;;;;;;;5092979;28;20055;-58
2021/07/24 03:14:25;;;;;;;10.82;8.85;;;;;;;;;;5093099;28;20027;-59
2021/07/24 03:16:51;;;;;;;12.10;9.52;;;;;;;;;;5093297;28;20453;-58
2021/07/24 03:19:17;;;;;;;11.80;10.35;;;;;;;;;;5093122;28;20067;-58
2021/07/24 03:21:43;;;;;;;12.60;10.07;;;;;;;;;;5092465;28;20067;-59
2021/07/24 03:24:09;;;;;;;10.65;9.55;;;;;;;;;;5093203;28;20107;-59
2021/07/24 03:26:35;;;;;;;13.90;9.80;;;;;;;;;;5092936;28;20066;-58
2021/07/24 03:29:04;;;;;;;11.80;9.73;;;;;;;;;;5095427;28;20035;-58
2021/07/24 03:31:30;;;;;;;12.02;8.93;;;;;;;;;;5096822;28;20028;-58
2021/07/24 03:33:56;;;;;;;10.32;8.38;;;;;;;;;;5096574;28;20162;-58
2021/07/24 03:36:22;;;;;;;13.10;10.18;;;;;;;;;;5096839;28;20119;-58
2021/07/24 03:38:48;;;;;;;11.50;9.57;;;;;;;;;;5096379;28;20021;-58
2021/07/24 03:41:14;;;;;;;12.25;9.93;;;;;;;;;;5094782;28;20051;-58
2021/07/24 03:43:42;;;;;;;10.75;8.10;;;;;;;;;;5096219;28;20073;-58
2021/07/24 03:46:17;;;;;;;10.75;9.60;;;;;;;;;;5096464;28;20032;-58
2021/07/24 03:48:44;;;;;;;10.48;9.30;;;;;;;;;;5096206;28;20024;-58
2021/07/24 03:51:14;;;;;;;15.10;9.77;;;;;;;;;;5096191;28;20133;-58
2021/07/24 03:53:40;;;;;;;14.80;10.80;;;;;;;;;;5096110;28;20028;-58
2021/07/24 03:56:07;;;;;;;10.38;9.27;;;;;;;;;;5095987;28;20067;-58
2021/07/24 03:58:33;;;;;;;10.63;9.45;;;;;;;;;;5096195;28;20063;-58
2021/07/24 04:01:01;;;;;;;11.82;9.77;;;;;;;;;;5096017;28;20027;-58
2021/07/24 04:03:27;;;;;;;13.30;9.02;;;;;;;;;;5096322;28;20060;-58
2021/07/24 04:05:53;;;;;;;14.60;9.93;;;;;;;;;;5095918;28;20028;-58
2021/07/24 04:08:19;;;;;;;12.32;10.35;;;;;;;;;;5094392;28;20407;-58
2021/07/24 04:10:46;;;;;;;12.40;9.40;;;;;;;;;;5095609;28;20048;-58
2021/07/24 04:13:12;;;;;;;10.77;9.65;;;;;;;;;;5095734;28;20073;-58
2021/07/24 04:15:38;;;;;;;10.18;8.85;;;;;;;;;;5095630;28;20094;-59
2021/07/24 04:18:05;;;;;;;11.57;8.95;;;;;;;;;;5095908;28;20035;-58
2021/07/24 04:20:31;;;;;;;13.65;10.93;;;;;;;;;;5095637;28;20334;-59
2021/07/24 04:22:57;;;;;;;11.13;9.27;;;;;;;;;;5096062;28;20027;-58
2021/07/24 04:25:23;;;;;;;12.10;9.52;;;;;;;;;;5095545;28;20017;-58
2021/07/24 04:27:49;;;;;;;9.23;8.30;;;;;;;;;;5095540;28;20465;-58
2021/07/24 04:30:15;;;;;;;11.18;9.15;;;;;;;;;;5095442;28;20066;-58
2021/07/24 04:32:41;;;;;;;14.82;9.95;;;;;;;;;;5095513;28;20046;-58
2021/07/24 04:35:07;;;;;;;11.10;9.52;;;;;;;;;;5094087;28;20458;-58
2021/07/24 04:37:33;;;;;;;10.98;9.60;;;;;;;;;;5095541;28;20032;-59
2021/07/24 04:39:59;;;;;;;10.70;8.10;;;;;;;;;;5095701;28;20082;-59
2021/07/24 04:42:25;;;;;;;13.57;9.38;;;;;;;;;;5095275;28;20123;-59
2021/07/24 04:44:51;;;;;;;10.88;9.40;;;;;;;;;;5095172;28;20055;-59
2021/07/24 04:47:17;;;;;;;9.90;8.82;;;;;;;;;;5095334;28;20149;-59
2021/07/24 04:49:48;;;;;;;10.52;9.00;;;;;;;;;;5095081;28;20134;-59
2021/07/24 04:52:14;;;;;;;10.68;9.55;;;;;;;;;;5095334;28;20031;-59
2021/07/24 04:54:41;;;;;;;10.63;9.23;;;;;;;;;;5094979;28;20072;-59
2021/07/24 04:57:07;;;;;;;10.10;8.60;;;;;;;;;;5093963;28;20023;-59
2021/07/24 04:59:35;;;;;;;12.25;10.23;;;;;;;;;;5093699;28;20055;-59
2021/07/24 05:02:01;;;;;;;13.20;10.80;;;;;;;;;;5095184;28;20020;-59
2021/07/24 05:04:27;;;;;;;10.68;9.07;;;;;;;;;;5093984;28;20016;-59
2021/07/24 05:06:53;;;;;;;11.98;9.25;;;;;;;;;;5093991;28;20331;-59
2021/07/24 05:09:19;;;;;;;9.88;8.85;;;;;;;;;;5094978;28;20032;-59
2021/07/24 05:11:45;;;;;;;11.73;9.85;;;;;;;;;;5094788;28;20112;-59
2021/07/24 05:14:11;;;;;;;11.10;9.70;;;;;;;;;;5095003;28;20024;-59
2021/07/24 05:16:37;;;;;;;10.60;9.52;;;;;;;;;;5094795;28;20369;-59
2021/07/24 05:19:05;;;;;;;13.38;9.57;;;;;;;;;;5094618;28;20020;-59
2021/07/24 05:21:32;;;;;;;14.07;10.23;;;;;;;;;;5093491;28;20032;-59
2021/07/24 05:23:58;;;;;;;12.75;10.50;;;;;;;;;;5094454;28;20028;-59
2021/07/24 05:26:26;;;;;;;14.68;10.20;;;;;;;;;;5092774;28;20032;-58
2021/07/24 05:28:52;;;;;;;12.27;10.15;;;;;;;;;;5094277;28;20587;-59
2021/07/24 05:31:18;;;;;;;9.85;8.85;;;;;;;;;;5094020;28;20063;-59
2021/07/24 05:33:45;;;;;;;11.95;10.15;;;;;;;;;;5094174;28;20024;-59
2021/07/24 05:36:11;;;;;;;11.95;9.10;;;;;;;;;;5094199;28;20032;-59
2021/07/24 05:38:39;;;;;;;11.88;9.52;;;;;;;;;;5094243;28;20031;-59
2021/07/24 05:41:05;;;;;;;11.80;9.85;;;;;;;;;;5094353;28;20132;-59
2021/07/24 05:43:32;;;;;;;13.38;10.20;;;;;;;;;;5094152;28;20056;-59
2021/07/24 05:46:00;;;;;;;10.55;9.48;;;;;;;;;;5094039;28;20028;-59
2021/07/24 05:48:26;;;;;;;11.35;8.77;;;;;;;;;;5095002;28;20081;-59
2021/07/24 05:50:54;;;;;;;11.75;9.55;;;;;;;;;;5093790;28;20438;-59
2021/07/24 05:53:19;;;;;;;11.98;9.60;;;;;;;;;;5094513;28;20382;-59
2021/07/24 05:55:45;;;;;;;11.38;8.93;;;;;;;;;;5093869;28;20035;-60
2021/07/24 05:58:11;;;;;;;13.50;9.68;;;;;;;;;;5093670;28;20402;-58
2021/07/24 06:00:37;;;;;;;9.75;7.85;;;;;;;;;;5092541;28;20115;-58
2021/07/24 06:03:03;;;;;;;13.95;10.30;;;;;;;;;;5094417;28;20103;-58
2021/07/24 06:05:29;;;;;;;9.75;8.50;;;;;;;;;;5093449;28;20110;-59
2021/07/24 06:07:55;;;;;;;12.23;9.02;;;;;;;;;;5093539;28;20028;-58
2021/07/24 06:10:21;;;;;;;12.90;9.82;;;;;;;;;;5091731;28;20024;-58
2021/07/24 06:12:48;;;;;;;10.70;9.48;;;;;;;;;;5093939;28;20016;-59
2021/07/24 06:15:14;;;;;;;11.73;8.48;;;;;;;;;;5093475;28;20099;-58
2021/07/24 06:17:40;;;;;;;9.55;8.55;;;;;;;;;;5092269;28;20062;-58
2021/07/24 06:20:06;;;;;;;10.88;9.45;;;;;;;;;;5093513;28;20113;-58
2021/07/24 06:22:32;;;;;;;13.73;10.27;;;;;;;;;;5093796;28;20405;-59
2021/07/24 06:24:58;;;;;;;10.27;8.02;;;;;;;;;;5093518;28;20024;-58
2021/07/24 06:27:24;;;;;;;12.18;9.82;;;;;;;;;;5093135;28;20028;-58
2021/07/24 06:29:50;;;;;;;10.13;8.85;;;;;;;;;;5093418;28;20020;-58
2021/07/24 06:32:16;;;;;;;9.48;8.48;;;;;;;;;;5094015;28;20024;-58
2021/07/24 06:34:44;;;;;;;10.60;8.90;;;;;;;;;;5093624;28;20054;-58
2021/07/24 06:37:10;;;;;;;12.05;9.38;;;;;;;;;;5075520;28;20382;-58
2021/07/24 06:39:36;;;;;;;10.40;8.73;;;;;;;;;;5093074;28;20111;-59
2021/07/24 06:42:02;;;;;;;10.93;9.77;;;;;;;;;;5093966;28;20132;-59
2021/07/24 06:44:28;;;;;;;11.38;9.38;;;;;;;;;;5093392;28;20029;-60
2021/07/24 06:46:56;;;;;;;13.30;10.20;;;;;;;;;;5074956;28;20069;-60
2021/07/24 06:49:22;;;;;;;13.52;9.43;;;;;;;;;;5092897;28;20020;-58
2021/07/24 06:51:48;;;;;;;11.13;9.52;;;;;;;;;;5093821;28;20027;-57
2021/07/24 06:54:14;;;;;;;10.95;8.95;;;;;;;;;;5093137;28;20019;-57
2021/07/24 06:56:40;;;;;;;10.38;8.90;;;;;;;;;;5093246;28;20028;-57
2021/07/24 06:59:06;;;;;;;12.98;8.82;;;;;;;;;;5093323;28;20343;-58
2021/07/24 07:01:32;;;;;;;14.30;9.98;;;;;;;;;;5093079;28;20035;-57
2021/07/24 07:03:58;;;;;;;9.20;8.25;;;;;;;;;;5097361;28;20480;-57
2021/07/24 07:06:24;;;;;;;12.52;9.30;;;;;;;;;;5097408;28;20177;-57
2021/07/24 07:08:50;;;;;;;10.23;8.85;;;;;;;;;;5097051;28;20032;-58
2021/07/24 07:11:18;;;;;;;10.32;8.73;;;;;;;;;;5096721;28;20048;-57
2021/07/24 07:13:44;;;;;;;10.65;8.20;;;;;;;;;;5095602;28;20028;-58
2021/07/24 07:16:10;;;;;;;10.07;9.07;;;;;;;;;;5097030;28;20024;-57
2021/07/24 07:18:37;;;;;;;11.85;9.63;;;;;;;;;;5096859;28;20469;-57
2021/07/24 07:21:03;;;;;;;9.77;8.52;;;;;;;;;;5096796;28;20032;-58
2021/07/24 07:23:29;;;;;;;16.02;9.40;;;;;;;;;;5096682;28;20039;-58
2021/07/24 07:25:55;;;;;;;12.75;9.55;;;;;;;;;;5096674;28;20465;-58
2021/07/24 07:28:21;;;;;;;11.18;9.63;;;;;;;;;;5097056;28;20016;-58
2021/07/24 07:30:47;;;;;;;11.77;9.88;;;;;;;;;;5096605;28;20057;-58
2021/07/24 07:33:15;;;;;;;10.60;9.50;;;;;;;;;;5096893;28;20399;-57
2021/07/24 07:35:41;;;;;;;12.30;10.23;;;;;;;;;;5096371;28;20161;-57
2021/07/24 07:38:07;;;;;;;11.65;9.73;;;;;;;;;;5096190;28;20070;-57
2021/07/24 07:40:37;;;;;;;12.93;11.60;;;;;;;;;;5096856;28;20016;-57
2021/07/24 07:43:04;;;;;;;13.20;11.35;;;;;;;;;;5097131;28;20024;-57
2021/07/24 07:45:30;;;;;;;11.43;10.23;;;;;;;;;;5096918;28;20059;-57
2021/07/24 07:47:56;;;;;;;12.50;11.15;;;;;;;;;;5094912;28;20481;-57
2021/07/24 07:50:22;;;;;;;12.80;11.32;;;;;;;;;;5096362;28;20055;-57
2021/07/24 07:52:51;;;;;;;12.25;10.93;;;;;;;;;;5096838;28;20028;-57
2021/07/24 07:55:17;;;;;;;11.25;10.02;;;;;;;;;;5094725;28;20024;-57
2021/07/24 07:57:43;;;;;;;12.23;10.27;;;;;;;;;;5095952;28;20032;-57
2021/07/24 08:00:09;;;;;;;11.18;9.23;;;;;;;;;;5095960;28;20351;-57
2021/07/24 08:02:35;;;;;;;12.30;9.80;;;;;;;;;;5096418;28;20069;-57
2021/07/24 08:05:01;;;;;;;9.63;8.63;;;;;;;;;;5096087;28;20017;-57
2021/07/24 08:07:27;;;;;;;14.20;10.85;;;;;;;;;;5096430;28;20027;-57
2021/07/24 08:09:56;;;;;;;10.45;9.20;;;;;;;;;;5096251;28;20514;-57
2021/07/24 08:12:22;;;;;;;11.55;10.35;;;;;;;;;;5095307;28;20527;-57
2021/07/24 08:14:50;;;;;;;11.27;10.20;;;;;;;;;;5095395;28;20100;-57
2021/07/24 08:17:18;;;;;;;12.88;9.27;;;;;;;;;;5096012;28;20032;-57
2021/07/24 08:19:44;;;;;;;10.57;9.07;;;;;;;;;;5078103;28;20027;-57
2021/07/24 08:22:10;;;;;;;9.93;8.93;;;;;;;;;;5095847;28;20028;-57
2021/07/24 08:24:36;;;;;;;11.70;10.10;;;;;;;;;;5095252;28;20016;-57
2021/07/24 08:27:02;;;;;;;14.18;8.95;;;;;;;;;;5095411;28;20020;-57
2021/07/24 08:29:28;;;;;;;10.15;9.05;;;;;;;;;;5095089;28;20484;-57
2021/07/24 08:31:54;;;;;;;15.77;9.55;;;;;;;;;;5094705;28;20024;-57
2021/07/24 08:34:22;;;;;;;11.38;9.88;;;;;;;;;;5095236;28;20028;-57
2021/07/24 08:36:48;;;;;;;11.90;9.27;;;;;;;;;;5093869;28;20478;-57
2021/07/24 08:39:14;;;;;;;12.40;9.32;;;;;;;;;;5095217;28;20118;-57
2021/07/24 08:41:44;;;;;;;11.00;9.48;;;;;;;;;;5093980;28;20119;-57
2021/07/24 08:44:11;;;;;;;11.40;9.63;;;;;;;;;;5095320;28;20372;-57
2021/07/24 08:46:37;;;;;;;12.77;10.07;;;;;;;;;;5095458;28;20054;-57
2021/07/24 08:49:03;;;;;;;10.70;9.57;;;;;;;;;;5095406;28;20077;-57
2021/07/24 08:51:31;;;;;;;11.10;9.68;;;;;;;;;;5095961;28;20055;-57
2021/07/24 08:53:57;;;;;;;12.35;9.50;;;;;;;;;;5095082;28;20461;-57
2021/07/24 08:56:26;;;;;;;10.32;9.32;;;;;;;;;;5095000;28;20046;-57
2021/07/24 08:58:54;;;;;;;15.02;9.40;;;;;;;;;;5095065;28;20030;-58
2021/07/24 09:01:21;;;;;;;10.70;9.60;;;;;;;;;;5095176;28;20028;-58
2021/07/24 09:03:47;;;;;;;12.63;9.73;;;;;;;;;;5095060;28;20412;-58
2021/07/24 09:06:21;;;;;;;12.15;10.05;;;;;;;;;;5094707;28;20032;-58
2021/07/24 09:08:51;;;;;;;13.25;8.98;;;;;;;;;;5095433;28;20077;-58
2021/07/24 09:11:18;;;;;;;10.18;8.70;;;;;;;;;;5094882;28;20048;-58
2021/07/24 09:13:44;;;;;;;15.85;10.55;;;;;;;;;;5094980;28;20111;-58
2021/07/24 09:16:12;;;;;;;16.83;10.30;;;;;;;;;;5094577;28;20436;-58
2021/07/24 09:18:39;;;;;;;17.15;10.63;;;;;;;;;;5094545;28;20097;-58
2021/07/24 09:21:06;;;;;;;10.48;9.30;;;;;;;;;;5094444;28;20484;-58
2021/07/24 09:23:35;;;;;;;15.38;10.90;;;;;;;;;;5094886;28;20123;-59
2021/07/24 09:26:04;;;;;;;15.07;11.70;;;;;;;;;;5093935;28;20024;-58
2021/07/24 09:28:29;;;;;;;10.88;9.60;;;;;;;;;;5094563;28;20016;-59
2021/07/24 09:30:55;;;;;;;9.77;8.82;;;;;;;;;;5094491;28;20028;-58
2021/07/24 09:33:22;;;;;;;11.05;9.95;;;;;;;;;;5094555;28;20020;-59
2021/07/24 09:35:48;;;;;;;10.85;9.75;;;;;;;;;;5094557;28;20112;-59
2021/07/24 09:38:13;;;;;;;10.43;9.38;;;;;;;;;;5093999;28;20395;-58
2021/07/24 09:40:40;;;;;;;12.48;10.27;;;;;;;;;;5093911;28;20028;-58
2021/07/24 09:43:27;;;;;;;16.33;10.13;;;;;;;;;;5093360;28;20027;-58
2021/07/24 09:46:11;;;;;;;11.85;10.18;;;;;;;;;;5093496;28;20051;-58
2021/07/24 09:48:37;;;;;;;13.35;9.68;;;;;;;;;;5093721;28;20184;-58
2021/07/24 09:51:03;;;;;;;11.43;10.23;;;;;;;;;;5093975;28;20084;-58
2021/07/24 09:53:41;;;;;;;11.07;8.65;;;;;;;;;;5094174;28;20099;-58
2021/07/24 09:56:13;;;;;;;9.13;7.65;;;;;;;;;;5093905;28;20406;-59
2021/07/24 09:58:39;;;;;;;8.57;6.82;;;;;;;;;;5092863;28;20114;-58
2021/07/24 10:01:09;;;;;;;10.40;8.65;;;;;;;;;;5093552;28;20028;-59
2021/07/24 10:03:35;;;;;;;8.63;6.82;;;;;;;;;;5093577;28;20032;-59
2021/07/24 10:06:14;;;;;;;8.90;8.10;;;;;;;;;;5093230;28;20478;-59
2021/07/24 10:08:41;;;;;;;10.38;7.32;;;;;;;;;;5093572;28;20024;-59
2021/07/24 10:11:07;;;;;;;9.23;7.32;;;;;;;;;;5093171;28;20044;-59
2021/07/24 10:13:33;;;;;;;8.02;7.28;;;;;;;;;;5093525;28;20020;-59
2021/07/24 10:16:00;;;;;;;13.15;8.75;;;;;;;;;;5093784;28;20031;-59
2021/07/24 10:18:26;;;;;;;9.57;8.57;;;;;;;;;;5093523;28;20397;-59
2021/07/24 10:20:53;;;;;;;9.85;8.38;;;;;;;;;;5094196;28;20403;-59
2021/07/24 10:23:23;;;;;;;12.10;8.63;;;;;;;;;;5093864;28;20024;-59
2021/07/24 10:25:55;;;;;;;13.52;8.30;;;;;;;;;;5093685;28;20051;-59
2021/07/24 10:28:40;;;;;;;8.85;7.95;;;;;;;;;;5093416;28;20028;-58
2021/07/24 10:31:14;;;;;;;10.10;7.53;;;;;;;;;;5093224;28;20025;-58
2021/07/24 10:33:40;;;;;;;9.20;8.23;;;;;;;;;;5092723;28;20466;-58
2021/07/24 10:36:10;;;;;;;9.32;7.40;;;;;;;;;;5092973;28;20036;-58
2021/07/24 10:38:36;;;;;;;8.48;7.40;;;;;;;;;;5097258;28;20046;-58
2021/07/24 10:41:37;;;;;;;10.18;7.65;;;;;;;;;;5097157;28;20499;-58
2021/07/24 10:44:26;;;;;;;11.35;8.23;;;;;;;;;;5095019;28;20064;-58
2021/07/24 10:46:58;;;;;;;8.68;7.47;;;;;;;;;;5086098;28;20093;-58
2021/07/24 10:49:44;;;;;;;10.77;7.88;;;;;;;;;;5097335;28;20028;-58
2021/07/24 10:52:11;;;;;;;8.68;7.85;;;;;;;;;;5097676;28;20020;-58
2021/07/24 10:54:52;;;;;;;9.85;7.53;;;;;;;;;;5097542;28;20477;-58
2021/07/24 10:57:37;;;;;;;8.10;7.30;;;;;;;;;;5096977;28;20036;-58
2021/07/24 11:00:30;;;;;;;11.80;7.20;;;;;;;;;;5097480;28;20032;-58
2021/07/24 11:02:55;;;;;;;7.72;6.93;;;;;;;;;;5097034;28;20094;-58
2021/07/24 11:05:25;;;;;;;9.10;6.95;;;;;;;;;;5097419;28;20024;-59
2021/07/24 11:07:51;;;;;;;9.90;7.90;;;;;;;;;;5096573;28;20020;-58
2021/07/24 11:10:17;;;;;;;9.73;6.80;;;;;;;;;;5096582;28;20097;-59
2021/07/24 11:12:43;;;;;;;8.30;6.10;;;;;;;;;;5097062;28;20089;-58
2021/07/24 11:15:10;;;;;;;10.05;5.40;;;;;;;;;;5097141;28;20047;-58
2021/07/24 11:17:36;;;;;;;6.85;4.78;;;;;;;;;;5096680;28;20099;-58
2021/07/24 11:20:08;;;;;;;6.03;4.72;;;;;;;;;;5097217;28;20032;-58
2021/07/24 11:22:38;;;;;;;5.78;4.82;;;;;;;;;;5096670;28;20366;-59
2021/07/24 11:25:04;;;;;;;9.95;5.55;;;;;;;;;;5096489;28;20046;-59
2021/07/24 11:27:30;;;;;;;6.88;4.70;;;;;;;;;;5096781;28;20024;-59
2021/07/24 11:30:05;;;;;;;6.53;4.18;;;;;;;;;;5096505;28;20366;-58
2021/07/24 11:32:38;;;;;;;6.15;4.30;;;;;;;;;;5096527;28;20024;-59
2021/07/24 11:35:05;;;;;;;6.47;5.15;;;;;;;;;;5096444;28;20028;-58
2021/07/24 11:37:35;;;;;;;8.05;5.65;;;;;;;;;;5096175;28;20035;-58
2021/07/24 11:40:02;;;;;;;9.38;5.75;;;;;;;;;;5096935;28;20052;-58
2021/07/24 11:42:28;;;;;;;8.88;5.40;;;;;;;;;;5096611;28;20028;-59
2021/07/24 11:44:54;;;;;;;11.73;4.97;;;;;;;;;;5096222;28;20021;-58
2021/07/24 11:47:20;;;;;;;6.28;3.97;;;;;;;;;;5096174;28;20028;-59
2021/07/24 11:49:46;;;;;;;5.53;4.60;;;;;;;;;;5095365;28;20020;-58
2021/07/24 11:52:12;;;;;;;6.22;5.07;;;;;;;;;;5096641;28;20032;-58
2021/07/24 11:54:38;;;;;;;7.40;5.13;;;;;;;;;;5096053;28;20024;-58
2021/07/24 11:57:05;;;;;;;7.65;5.53;;;;;;;;;;5096222;28;20031;-59
2021/07/24 11:59:35;;;;;;;10.77;5.47;;;;;;;;;;5095898;28;20051;-58
2021/07/24 12:02:02;;;;;;;7.80;4.70;;;;;;;;;;5096494;28;20034;-58
2021/07/24 12:04:28;;;;;;;7.53;5.72;;;;;;;;;;5096060;28;20034;-59
2021/07/24 12:07:03;;;;;;;7.07;5.05;;;;;;;;;;5095819;28;20031;-59
2021/07/24 12:09:30;;;;;;;10.95;6.05;;;;;;;;;;5096062;28;20024;-59
2021/07/24 12:11:58;;;;;;;8.25;4.97;;;;;;;;;;5095787;28;20462;-59
2021/07/24 12:14:26;;;;;;;7.22;5.68;;;;;;;;;;5096276;28;20401;-59
2021/07/24 12:17:07;;;;;;;6.70;4.97;;;;;;;;;;5095156;28;20480;-59
2021/07/24 12:19:40;;;;;;;6.32;5.70;;;;;;;;;;5095425;28;20024;-59
2021/07/24 12:22:17;;;;;;;7.50;4.85;;;;;;;;;;5095672;28;20107;-59
2021/07/24 12:24:43;;;;;;;6.38;4.88;;;;;;;;;;5095657;28;20489;-59
2021/07/24 12:27:11;;;;;;;6.30;5.32;;;;;;;;;;5095390;28;20054;-59
2021/07/24 12:29:46;;;;;;;4.97;4.47;;;;;;;;;;5095763;28;20017;-59
2021/07/24 12:32:12;;;;;;;5.82;4.70;;;;;;;;;;5095005;28;20049;-59
2021/07/24 12:34:38;;;;;;;5.63;5.03;;;;;;;;;;5095204;28;20107;-60
2021/07/24 12:37:05;;;;;;;6.35;5.28;;;;;;;;;;5095144;28;20063;-61
2021/07/24 12:39:31;;;;;;;7.93;5.13;;;;;;;;;;5094056;28;20055;-61
2021/07/24 12:42:02;;;;;;;6.47;5.15;;;;;;;;;;5095151;28;20462;-61
2021/07/24 12:44:31;;;;;;;6.38;4.90;;;;;;;;;;5095159;28;20055;-61
2021/07/24 12:47:16;;;;;;;6.03;5.43;;;;;;;;;;5095361;28;20114;-58
2021/07/24 12:49:43;;;;;;;7.93;5.30;;;;;;;;;;5095530;28;20085;-58
2021/07/24 12:52:27;;;;;;;7.90;5.57;;;;;;;;;;5095220;28;20107;-58
2021/07/24 12:55:02;;;;;;;5.70;4.50;;;;;;;;;;5095350;28;20081;-58
2021/07/24 12:57:29;;;;;;;6.47;4.60;;;;;;;;;;5094785;28;20035;-58
2021/07/24 12:59:56;;;;;;;5.78;4.97;;;;;;;;;;5094591;28;20036;-58
2021/07/24 13:02:22;;;;;;;5.63;4.63;;;;;;;;;;5095017;28;20103;-58
2021/07/24 13:04:51;;;;;;;7.43;4.68;;;;;;;;;;5094612;28;20013;-58
2021/07/24 13:07:17;;;;;;;6.70;5.07;;;;;;;;;;5094714;28;20519;-58
2021/07/24 13:09:43;;;;;;;6.65;4.60;;;;;;;;;;5095270;28;20106;-60
2021/07/24 13:12:09;;;;;;;6.00;5.22;;;;;;;;;;5095048;28;20052;-61
2021/07/24 13:14:35;;;;;;;7.68;4.55;;;;;;;;;;5094832;28;20035;-61
2021/07/24 13:17:01;;;;;;;7.22;4.57;;;;;;;;;;5094260;28;20024;-61
2021/07/24 13:19:27;;;;;;;6.80;4.40;;;;;;;;;;5094166;28;20031;-61
2021/07/24 13:21:53;;;;;;;6.35;4.90;;;;;;;;;;5094517;28;20024;-60
2021/07/24 13:24:19;;;;;;;5.28;4.47;;;;;;;;;;5093779;28;20022;-58
2021/07/24 13:29:14;;;;;;;6.40;5.25;;;;;;;;;;5094112;28;20024;-58
2021/07/24 13:31:40;;;;;;;8.95;5.68;;;;;;;;;;5094902;28;20020;-58
2021/07/24 13:34:06;;;;;;;7.15;5.13;;;;;;;;;;5094310;28;20022;-58
2021/07/24 13:36:33;;;;;;;6.47;4.85;;;;;;;;;;5093776;28;20024;-58
2021/07/24 13:38:59;;;;;;;5.70;4.65;;;;;;;;;;5094128;28;20032;-58
2021/07/24 13:41:25;;;;;;;6.63;4.88;;;;;;;;;;5094422;28;20120;-58
2021/07/24 13:43:51;;;;;;;7.00;5.18;;;;;;;;;;5093667;28;20465;-59
2021/07/24 13:46:18;;;;;;;6.93;4.85;;;;;;;;;;5093770;28;20119;-60
2021/07/24 13:48:44;;;;;;;5.38;4.88;;;;;;;;;;5093814;28;20137;-60
2021/07/24 13:51:10;;;;;;;10.63;5.53;;;;;;;;;;5094315;28;20020;-60
2021/07/24 13:53:36;;;;;;;8.98;5.78;;;;;;;;;;5093812;28;20032;-60
2021/07/24 13:56:02;;;;;;;6.72;5.80;;;;;;;;;;5093663;28;20120;-60
2021/07/24 13:58:28;;;;;;;7.45;5.65;;;;;;;;;;5093426;28;20032;-60
2021/07/24 14:00:54;;;;;;;6.78;5.32;;;;;;;;;;5093485;28;20050;-60
2021/07/24 14:03:20;;;;;;;5.82;4.40;;;;;;;;;;5093786;28;20035;-60
2021/07/24 14:05:47;;;;;;;7.10;4.70;;;;;;;;;;5093630;28;20016;-60
2021/07/24 14:08:13;;;;;;;6.32;4.97;;;;;;;;;;5093659;28;20024;-60
2021/07/24 14:10:39;;;;;;;8.35;5.70;;;;;;;;;;5093092;28;20051;-60
2021/07/24 14:13:08;;;;;;;6.65;5.70;;;;;;;;;;5092949;28;20096;-60
2021/07/24 14:15:34;;;;;;;10.27;6.00;;;;;;;;;;5093391;28;20052;-60
2021/07/24 14:18:00;;;;;;;7.82;4.90;;;;;;;;;;5093608;28;20083;-60
2021/07/24 14:20:26;;;;;;;8.90;6.15;;;;;;;;;;5093587;28;20028;-60
2021/07/24 14:22:52;;;;;;;8.63;3.95;;;;;;;;;;5093826;28;20027;-60
2021/07/24 14:25:18;;;;;;;6.70;4.60;;;;;;;;;;5093777;28;20020;-60
2021/07/24 14:27:44;;;;;;;8.18;5.38;;;;;;;;;;5093571;28;20024;-60
2021/07/24 14:30:11;;;;;;;6.50;5.25;;;;;;;;;;5093376;28;20458;-60
2021/07/24 14:32:36;;;;;;;5.43;4.85;;;;;;;;;;5093139;28;20020;-60
2021/07/24 14:35:02;;;;;;;5.88;4.68;;;;;;;;;;5092934;28;20119;-60
2021/07/24 14:37:29;;;;;;;4.80;3.80;;;;;;;;;;5093142;28;20077;-60
2021/07/24 14:39:55;;;;;;;7.55;4.15;;;;;;;;;;5093241;28;20489;-59